Wetterdaten: Freitag, 27.05.2016
Datum Zeit Temp. A. Mod.Schuppen Aussentemp2 Feuchte A. Luftdruck Regen Wind Richtung Richtung Sonnenschein Helligkeit Solar
27.05.2016 00:00 17,9 C 16,4 C 17,5 C 60 % 1013,7 hPa 0,0 l/m 19,6 km/h (3 Bft) NO22.5 40 0 min 0 lux 0 W/m
27.05.2016 00:04 17,8 C 16,3 C 17,5 C 61 % 1013,7 hPa 0,0 l/m 20,6 km/h (4 Bft) NO22.5 40 0 min 0 lux 0 W/m
27.05.2016 00:10 17,8 C 16,1 C 17,4 C 61 % 1013,7 hPa 0,0 l/m 15,1 km/h (3 Bft) NO22.5 40 0 min 0 lux 0 W/m
27.05.2016 00:15 17,8 C 16,1 C 17,4 C 61 % 1013,7 hPa 0,0 l/m 20,5 km/h (4 Bft) NO22.5 40 0 min 0 lux 0 W/m
27.05.2016 00:20 17,7 C 16,1 C 17,4 C 61 % 1013,7 hPa 0,0 l/m 17,1 km/h (3 Bft) N-NO45 30 0 min 0 lux 0 W/m
27.05.2016 00:25 17,6 C 16,0 C 17,4 C 62 % 1013,7 hPa 0,0 l/m 15,2 km/h (3 Bft) O-NO22.5 60 0 min 0 lux 0 W/m
27.05.2016 00:29 17,6 C 15,9 C 17,4 C 62 % 1013,7 hPa 0,0 l/m 15,8 km/h (3 Bft) NO22.5 40 0 min 0 lux 0 W/m
27.05.2016 00:34 17,6 C 15,9 C 17,4 C 62 % 1013,7 hPa 0,0 l/m 19,9 km/h (4 Bft) NO45 45 0 min 0 lux 0 W/m
27.05.2016 00:40 17,5 C 15,6 C 17,4 C 62 % 1012,7 hPa 0,0 l/m 14,6 km/h (3 Bft) NO45 50 0 min 0 lux 0 W/m
27.05.2016 00:45 17,4 C 15,5 C 17,4 C 62 % 1012,7 hPa 0,0 l/m 17,3 km/h (3 Bft) NO22.5 50 0 min 0 lux 0 W/m
27.05.2016 00:50 17,4 C 15,4 C 17,4 C 62 % 1012,7 hPa 0,0 l/m 17,3 km/h (3 Bft) NO22.5 45 0 min 0 lux 0 W/m
27.05.2016 00:55 17,4 C 15,4 C 17,4 C 62 % 1012,7 hPa 0,0 l/m 16,0 km/h (3 Bft) NO45 35 0 min 0 lux 0 W/m
27.05.2016 00:59 17,4 C 15,4 C 17,4 C 62 % 1012,7 hPa 0,0 l/m 17,6 km/h (3 Bft) NO45 45 0 min 0 lux 0 W/m
27.05.2016 01:05 17,3 C 15,2 C 17,4 C 62 % 1012,7 hPa 0,0 l/m 17,6 km/h (3 Bft) NO45 45 0 min 0 lux 0 W/m
27.05.2016 01:10 17,2 C 15,2 C 17,4 C 63 % 1012,7 hPa 0,0 l/m 14,0 km/h (3 Bft) NO22.5 45 0 min 0 lux 0 W/m
27.05.2016 01:15 17,2 C 15,3 C 17,4 C 63 % 1012,7 hPa 0,0 l/m 8,4 km/h (2 Bft) NO45 45 0 min 0 lux 0 W/m
27.05.2016 01:19 17,2 C 15,5 C 17,4 C 64 % 1012,7 hPa 0,0 l/m 20,8 km/h (4 Bft) NO22.5 55 0 min 0 lux 0 W/m
27.05.2016 01:24 17,2 C 15,5 C 17,3 C 63 % 1012,7 hPa 0,0 l/m 14,5 km/h (3 Bft) NO45 50 0 min 0 lux 0 W/m
27.05.2016 01:30 17,2 C 15,7 C 17,3 C 63 % 1012,7 hPa 0,0 l/m 19,4 km/h (3 Bft) NO22.5 35 0 min 0 lux 0 W/m
27.05.2016 01:35 17,2 C 15,6 C 17,3 C 63 % 1012,7 hPa 0,0 l/m 17,3 km/h (3 Bft) NO22.5 35 0 min 0 lux 0 W/m
27.05.2016 01:40 17,2 C 15,6 C 17,3 C 64 % 1012,7 hPa 0,0 l/m 17,8 km/h (3 Bft) NO22.5 45 0 min 0 lux 0 W/m
27.05.2016 01:44 17,1 C 15,6 C 17,3 C 64 % 1012,7 hPa 0,0 l/m 13,0 km/h (3 Bft) NO22.5 50 0 min 0 lux 0 W/m
27.05.2016 01:49 17,0 C 15,6 C 17,3 C 64 % 1012,7 hPa 0,0 l/m 14,7 km/h (3 Bft) NO22.5 45 0 min 0 lux 0 W/m
27.05.2016 01:54 17,0 C 15,6 C 17,3 C 64 % 1012,7 hPa 0,0 l/m 16,3 km/h (3 Bft) NO22.5 50 0 min 0 lux 0 W/m
27.05.2016 02:00 17,0 C 15,8 C 17,3 C 64 % 1012,7 hPa 0,0 l/m 16,6 km/h (3 Bft) NO45 45 0 min 0 lux 0 W/m
27.05.2016 02:04 17,0 C 15,9 C 17,3 C 64 % 1012,7 hPa 0,0 l/m 18,8 km/h (3 Bft) NO22.5 35 0 min 0 lux 0 W/m
27.05.2016 02:09 17,0 C 15,8 C 17,3 C 64 % 1012,7 hPa 0,0 l/m 19,6 km/h (3 Bft) NO22.5 40 0 min 0 lux 0 W/m
27.05.2016 02:15 17,0 C 15,8 C 17,3 C 65 % 1012,7 hPa 0,0 l/m 25,4 km/h (4 Bft) NO45 40 0 min 0 lux 0 W/m
27.05.2016 02:20 16,9 C 15,8 C 17,3 C 65 % 1012,7 hPa 0,0 l/m 14,0 km/h (3 Bft) NO22.5 55 0 min 0 lux 0 W/m
27.05.2016 02:25 16,9 C 15,7 C 17,3 C 65 % 1012,7 hPa 0,0 l/m 0,4 km/h (0 Bft) NO 35 0 min 0 lux 0 W/m
27.05.2016 02:30 16,8 C 15,7 C 17,3 C 64 % 1012,7 hPa 0,0 l/m 16,5 km/h (3 Bft) O-NO22.5 65 0 min 0 lux 0 W/m
27.05.2016 02:34 16,8 C 15,6 C 17,3 C 64 % 1012,7 hPa 0,0 l/m 14,5 km/h (3 Bft) O22.5 90 0 min 0 lux 0 W/m
27.05.2016 02:40 16,8 C 15,6 C 17,3 C 64 % 1012,7 hPa 0,0 l/m 11,0 km/h (2 Bft) O22.5 85 0 min 0 lux 0 W/m
27.05.2016 02:45 16,7 C 15,5 C 17,3 C 64 % 1012,7 hPa 0,0 l/m 14,6 km/h (3 Bft) O22.5 85 0 min 0 lux 0 W/m
27.05.2016 02:49 16,6 C 15,5 C 17,3 C 65 % 1012,7 hPa 0,0 l/m 11,2 km/h (2 Bft) O22.5 85 0 min 0 lux 0 W/m
27.05.2016 02:54 16,6 C 15,4 C 17,3 C 65 % 1012,7 hPa 0,0 l/m 6,8 km/h (2 Bft) O-NO 60 0 min 0 lux 0 W/m
27.05.2016 03:00 16,6 C 15,3 C 17,3 C 65 % 1012,7 hPa 0,0 l/m 0,3 km/h (0 Bft) O-NO 60 0 min 0 lux 0 W/m
27.05.2016 03:05 16,4 C 15,2 C 17,3 C 66 % 1013,7 hPa 0,0 l/m 0,6 km/h (0 Bft) NO 45 0 min 0 lux 0 W/m
27.05.2016 03:09 16,2 C 15,1 C 17,3 C 67 % 1013,7 hPa 0,0 l/m 4,9 km/h (1 Bft) NO 45 0 min 0 lux 0 W/m
27.05.2016 03:14 16,2 C 15,0 C 17,2 C 67 % 1013,7 hPa 0,0 l/m 5,4 km/h (2 Bft) NO 45 0 min 0 lux 0 W/m
27.05.2016 03:20 16,1 C 14,9 C 17,2 C 67 % 1012,7 hPa 0,0 l/m 7,1 km/h (2 Bft) NO 40 0 min 0 lux 0 W/m
27.05.2016 03:25 16,1 C 14,9 C 17,2 C 67 % 1012,7 hPa 0,0 l/m 6,5 km/h (2 Bft) NO 40 0 min 0 lux 0 W/m
27.05.2016 03:30 16,1 C 14,8 C 17,2 C 67 % 1012,7 hPa 0,0 l/m 7,9 km/h (2 Bft) N22.5 10 0 min 0 lux 0 W/m
27.05.2016 03:35 16,0 C 14,7 C 17,2 C 67 % 1012,7 hPa 0,0 l/m 6,2 km/h (2 Bft) N-NO 25 0 min 0 lux 0 W/m
27.05.2016 03:39 16,0 C 14,7 C 17,2 C 67 % 1013,7 hPa 0,0 l/m 3,9 km/h (1 Bft) N-NO 25 0 min 0 lux 0 W/m
27.05.2016 03:44 16,0 C 14,6 C 17,2 C 67 % 1013,7 hPa 0,0 l/m 8,8 km/h (2 Bft) N-NO 30 0 min 0 lux 0 W/m
27.05.2016 03:50 16,0 C 14,6 C 17,2 C 67 % 1013,7 hPa 0,0 l/m 8,8 km/h (2 Bft) NO 35 0 min 0 lux 0 W/m
27.05.2016 03:55 16,0 C 14,6 C 17,2 C 67 % 1013,7 hPa 0,0 l/m 8,0 km/h (2 Bft) N-NO 30 0 min 0 lux 0 W/m
27.05.2016 04:00 15,9 C 14,6 C 17,2 C 68 % 1013,7 hPa 0,0 l/m 9,8 km/h (2 Bft) NO 40 0 min 0 lux 0 W/m
27.05.2016 04:04 15,9 C 14,5 C 17,2 C 68 % 1013,7 hPa 0,0 l/m 10,3 km/h (2 Bft) O-NO22.5 70 0 min 0 lux 0 W/m
27.05.2016 04:10 15,8 C 14,5 C 17,2 C 69 % 1013,7 hPa 0,0 l/m 0,9 km/h (0 Bft) O-NO 65 0 min 0 lux 0 W/m
27.05.2016 04:15 15,8 C 14,6 C 17,2 C 69 % 1013,7 hPa 0,0 l/m 10,4 km/h (2 Bft) NO22.5 55 0 min 0 lux 0 W/m
27.05.2016 04:20 15,8 C 14,6 C 17,1 C 69 % 1013,7 hPa 0,0 l/m 6,6 km/h (2 Bft) NO 35 0 min 0 lux 0 W/m
27.05.2016 04:25 15,8 C 14,6 C 17,1 C 69 % 1013,7 hPa 0,0 l/m 11,0 km/h (2 Bft) NO 35 0 min 0 lux 0 W/m
27.05.2016 04:29 15,7 C 14,6 C 17,1 C 69 % 1013,7 hPa 0,0 l/m 15,1 km/h (3 Bft) N-NO 30 0 min 0 lux 0 W/m
27.05.2016 04:34 15,7 C 14,7 C 17,1 C 69 % 1013,7 hPa 0,0 l/m 11,0 km/h (2 Bft) N-NO 25 0 min 0 lux 0 W/m
27.05.2016 04:40 15,7 C 14,6 C 17,1 C 69 % 1013,7 hPa 0,0 l/m 12,1 km/h (2 Bft) N-NO 30 0 min 0 lux 0 W/m
27.05.2016 04:45 15,6 C 14,6 C 17,1 C 69 % 1013,7 hPa 0,0 l/m 11,6 km/h (2 Bft) NO22.5 40 0 min 0 lux 0 W/m
27.05.2016 04:50 15,6 C 14,5 C 17,1 C 70 % 1013,7 hPa 0,0 l/m 11,4 km/h (2 Bft) NO22.5 45 0 min 0 lux 0 W/m
27.05.2016 04:54 15,6 C 14,5 C 17,1 C 70 % 1013,7 hPa 0,0 l/m 14,1 km/h (3 Bft) NO22.5 35 0 min 0 lux 0 W/m
27.05.2016 04:59 15,5 C 14,5 C 17,1 C 71 % 1013,7 hPa 0,0 l/m 14,5 km/h (3 Bft) NO22.5 40 0 min 0 lux 0 W/m
27.05.2016 05:05 15,4 C 14,4 C 17,1 C 71 % 1013,7 hPa 0,0 l/m 13,8 km/h (3 Bft) NO45 50 0 min 0 lux 0 W/m
27.05.2016 05:10 15,4 C 14,4 C 17,1 C 71 % 1013,7 hPa 0,0 l/m 14,5 km/h (3 Bft) NO22.5 35 0 min 0 lux 0 W/m
27.05.2016 05:14 15,3 C 14,3 C 17,0 C 72 % 1013,7 hPa 0,0 l/m 11,5 km/h (2 Bft) NO22.5 45 0 min 0 lux 0 W/m
27.05.2016 05:19 15,3 C 14,3 C 17,0 C 72 % 1013,7 hPa 0,0 l/m 12,4 km/h (2 Bft) NO22.5 50 0 min 0 lux 0 W/m
27.05.2016 05:25 15,3 C 14,3 C 17,0 C 72 % 1013,7 hPa 0,0 l/m 14,2 km/h (3 Bft) NO22.5 40 0 min 35 lux 0 W/m
27.05.2016 05:30 15,3 C 14,3 C 17,0 C 72 % 1013,7 hPa 0,0 l/m 12,8 km/h (3 Bft) NO22.5 45 0 min 50 lux 0 W/m
27.05.2016 05:35 15,2 C 14,2 C 17,0 C 72 % 1013,7 hPa 0,0 l/m 14,1 km/h (3 Bft) NO45 40 0 min 81 lux 1 W/m
27.05.2016 05:40 15,3 C 14,2 C 17,0 C 72 % 1013,7 hPa 0,0 l/m 9,6 km/h (2 Bft) NO 35 0 min 143 lux 1 W/m
27.05.2016 05:44 15,2 C 14,2 C 17,0 C 72 % 1013,7 hPa 0,0 l/m 11,0 km/h (2 Bft) NO 35 0 min 243 lux 2 W/m
27.05.2016 05:49 15,2 C 14,2 C 17,0 C 73 % 1013,7 hPa 0,0 l/m 13,0 km/h (3 Bft) NO22.5 40 0 min 365 lux 2 W/m
27.05.2016 05:55 15,2 C 14,2 C 17,0 C 74 % 1013,7 hPa 0,0 l/m 14,9 km/h (3 Bft) NO22.5 55 0 min 452 lux 3 W/m
27.05.2016 06:00 15,2 C 14,4 C 17,0 C 74 % 1013,7 hPa 0,0 l/m 8,7 km/h (2 Bft) NO 50 0 min 851 lux 6 W/m
27.05.2016 06:04 15,3 C 14,4 C 17,0 C 74 % 1013,7 hPa 0,0 l/m 7,7 km/h (2 Bft) O-NO22.5 65 0 min 1,17 klux 8 W/m
27.05.2016 06:09 15,3 C 14,6 C 17,0 C 73 % 1013,7 hPa 0,0 l/m 14,5 km/h (3 Bft) O-NO22.5 70 0 min 1,18 klux 8 W/m
27.05.2016 06:15 15,3 C 14,7 C 17,0 C 73 % 1013,7 hPa 0,0 l/m 13,0 km/h (3 Bft) O-NO45 75 0 min 1,18 klux 8 W/m
27.05.2016 06:20 15,2 C 14,8 C 17,0 C 73 % 1013,7 hPa 0,0 l/m 9,1 km/h (2 Bft) O 80 0 min 694 lux 5 W/m
27.05.2016 06:25 15,2 C 14,7 C 17,0 C 73 % 1013,7 hPa 0,0 l/m 9,6 km/h (2 Bft) O22.5 95 0 min 781 lux 5 W/m
27.05.2016 06:29 15,2 C 14,7 C 17,0 C 73 % 1013,7 hPa 0,0 l/m 14,1 km/h (3 Bft) O-SO22.5 115 0 min 812 lux 6 W/m
27.05.2016 06:34 15,0 C 14,7 C 16,9 C 73 % 1013,7 hPa 0,0 l/m 16,5 km/h (3 Bft) O-NO22.5 75 0 min 1,01 klux 7 W/m
27.05.2016 06:40 15,0 C 14,6 C 17,0 C 73 % 1013,7 hPa 0,0 l/m 15,1 km/h (3 Bft) O22.5 80 0 min 1,48 klux 10 W/m
27.05.2016 06:45 15,0 C 14,7 C 17,0 C 73 % 1013,7 hPa 0,0 l/m 12,8 km/h (3 Bft) O22.5 85 0 min 2,04 klux 14 W/m
27.05.2016 06:50 15,0 C 14,7 C 16,9 C 74 % 1013,7 hPa 0,0 l/m 5,1 km/h (1 Bft) O22.5 90 0 min 2,73 klux 19 W/m
27.05.2016 06:55 15,0 C 14,8 C 17,0 C 74 % 1013,7 hPa 0,0 l/m 11,5 km/h (2 Bft) O22.5 90 0 min 3,08 klux 21 W/m
27.05.2016 06:59 15,0 C 14,9 C 17,0 C 74 % 1013,7 hPa 0,0 l/m 8,9 km/h (2 Bft) O22.5 90 0 min 3,14 klux 21 W/m
27.05.2016 07:05 15,0 C 15,0 C 17,0 C 74 % 1013,7 hPa 0,0 l/m 1,1 km/h (1 Bft) O 100 0 min 3,20 klux 22 W/m
27.05.2016 07:10 15,0 C 15,2 C 16,9 C 74 % 1013,7 hPa 0,0 l/m 10,4 km/h (2 Bft) O22.5 80 0 min 3,70 klux 25 W/m
27.05.2016 07:15 15,0 C 15,2 C 17,0 C 74 % 1013,7 hPa 0,0 l/m 3,6 km/h (1 Bft) O 90 0 min 3,70 klux 25 W/m
27.05.2016 07:19 15,0 C 15,4 C 16,9 C 74 % 1013,7 hPa 0,0 l/m 9,8 km/h (2 Bft) O 85 0 min 3,39 klux 23 W/m
27.05.2016 07:24 15,0 C 15,5 C 16,9 C 74 % 1013,7 hPa 0,0 l/m 13,8 km/h (3 Bft) O-NO22.5 75 0 min 3,68 klux 25 W/m
27.05.2016 07:30 15,1 C 15,5 C 16,9 C 74 % 1013,7 hPa 0,0 l/m 4,9 km/h (1 Bft) O 85 0 min 4,53 klux 31 W/m
27.05.2016 07:35 15,3 C 15,8 C 16,9 C 74 % 1013,7 hPa 0,0 l/m 2,1 km/h (1 Bft) O-NO 65 0 min 5,15 klux 35 W/m
27.05.2016 07:40 15,4 C 16,1 C 16,9 C 74 % 1013,7 hPa 0,0 l/m 7,6 km/h (2 Bft) NO22.5 50 0 min 5,59 klux 38 W/m
27.05.2016 07:44 15,4 C 16,3 C 16,9 C 74 % 1013,7 hPa 0,0 l/m 7,4 km/h (2 Bft) N-NO 30 0 min 5,83 klux 40 W/m
27.05.2016 07:49 15,4 C 16,3 C 16,9 C 74 % 1013,7 hPa 0,0 l/m 14,1 km/h (3 Bft) NO 35 0 min 5,88 klux 40 W/m
27.05.2016 07:55 15,4 C 16,4 C 16,9 C 74 % 1013,7 hPa 0,0 l/m 7,7 km/h (2 Bft) NO22.5 40 0 min 5,43 klux 37 W/m
27.05.2016 08:00 15,4 C 16,4 C 16,9 C 74 % 1013,7 hPa 0,0 l/m 0,1 km/h (0 Bft) O 100 0 min 5,18 klux 35 W/m
27.05.2016 08:04 15,4 C 16,3 C 17,0 C 74 % 1013,7 hPa 0,0 l/m 11,6 km/h (2 Bft) O-NO22.5 75 0 min 5,75 klux 39 W/m
27.05.2016 08:09 15,3 C 16,2 C 17,0 C 74 % 1013,7 hPa 0,0 l/m 9,2 km/h (2 Bft) O22.5 100 0 min 6,85 klux 47 W/m
27.05.2016 08:15 15,4 C 16,8 C 17,0 C 74 % 1013,7 hPa 0,0 l/m 5,7 km/h (2 Bft) O 80 0 min 7,67 klux 52 W/m
27.05.2016 08:20 15,6 C 17,1 C 16,9 C 74 % 1013,7 hPa 0,0 l/m 5,2 km/h (1 Bft) O-NO 65 0 min 8,50 klux 58 W/m
27.05.2016 08:25 15,6 C 17,5 C 16,9 C 74 % 1013,7 hPa 0,0 l/m 6,8 km/h (2 Bft) NO 55 0 min 10,6 klux 73 W/m
27.05.2016 08:30 15,7 C 18,2 C 16,9 C 74 % 1013,7 hPa 0,0 l/m 9,0 km/h (2 Bft) NO 50 0 min 11,7 klux 80 W/m
27.05.2016 08:34 15,8 C 18,6 C 16,9 C 74 % 1013,7 hPa 0,0 l/m 8,1 km/h (2 Bft) NO 45 0 min 10,1 klux 69 W/m
27.05.2016 08:39 15,8 C 18,8 C 16,9 C 74 % 1013,7 hPa 0,0 l/m 0,3 km/h (0 Bft) NO 45 0 min 9,6 klux 65 W/m
27.05.2016 08:45 15,8 C 19,1 C 16,9 C 74 % 1013,7 hPa 0,0 l/m 0,3 km/h (0 Bft) NO 45 0 min 9,7 klux 66 W/m
27.05.2016 08:50 16,0 C 19,2 C 16,9 C 74 % 1013,7 hPa 0,0 l/m 0,0 km/h (0 Bft) NO 45 0 min 9,1 klux 62 W/m
27.05.2016 08:55 16,0 C 19,5 C 16,8 C 74 % 1013,7 hPa 0,0 l/m 0,0 km/h (0 Bft) NO 45 0 min 12,3 klux 84 W/m
27.05.2016 08:59 16,1 C 20,1 C 16,8 C 74 % 1013,7 hPa 0,0 l/m 8,0 km/h (2 Bft) NO 45 0 min 17,2 klux 118 W/m
27.05.2016 09:05 16,2 C 21,0 C 16,9 C 75 % 1013,7 hPa 0,0 l/m 6,5 km/h (2 Bft) NO 45 0 min 18,7 klux 128 W/m
27.05.2016 09:10 16,2 C 21,0 C 16,9 C 74 % 1013,7 hPa 0,0 l/m 13,3 km/h (3 Bft) NO 40 0 min 14,7 klux 101 W/m
27.05.2016 09:15 16,3 C 20,9 C 16,9 C 74 % 1013,7 hPa 0,0 l/m 10,3 km/h (2 Bft) N-NO22.5 30 0 min 15,7 klux 107 W/m
27.05.2016 09:19 16,3 C 21,0 C 16,9 C 74 % 1013,7 hPa 0,0 l/m 10,0 km/h (2 Bft) N-NO 15 0 min 14,7 klux 101 W/m
27.05.2016 09:24 16,3 C 20,9 C 16,9 C 73 % 1013,7 hPa 0,0 l/m 10,2 km/h (2 Bft) N-NO 30 0 min 15,8 klux 108 W/m
27.05.2016 09:30 16,4 C 20,7 C 16,8 C 73 % 1013,7 hPa 0,0 l/m 9,7 km/h (2 Bft) N-NO 30 0 min 15,8 klux 108 W/m
27.05.2016 09:35 16,4 C 21,4 C 16,9 C 73 % 1013,7 hPa 0,0 l/m 9,2 km/h (2 Bft) NO 35 0 min 20,2 klux 138 W/m
27.05.2016 09:40 16,5 C 21,9 C 16,9 C 73 % 1013,7 hPa 0,0 l/m 10,0 km/h (2 Bft) N-NO 30 0 min 19,8 klux 135 W/m
27.05.2016 09:44 16,6 C 21,8 C 16,9 C 73 % 1013,7 hPa 0,0 l/m 10,4 km/h (2 Bft) N-NO 20 0 min 21,7 klux 148 W/m
27.05.2016 09:49 16,6 C 22,0 C 17,0 C 73 % 1013,7 hPa 0,0 l/m 11,5 km/h (2 Bft) N-NO22.5 25 0 min 21,4 klux 146 W/m
27.05.2016 09:55 16,7 C 22,4 C 16,9 C 73 % 1013,7 hPa 0,0 l/m 8,3 km/h (2 Bft) N-NO 25 0 min 21,1 klux 144 W/m
27.05.2016 10:00 17,0 C 23,1 C 17,0 C 73 % 1013,7 hPa 0,0 l/m 6,9 km/h (2 Bft) N 5 0 min 23,2 klux 159 W/m
27.05.2016 10:04 16,9 C 23,2 C 17,1 C 73 % 1013,7 hPa 0,0 l/m 15,0 km/h (3 Bft) N-NO22.5 25 0 min 23,4 klux 160 W/m
27.05.2016 10:09 16,8 C 23,6 C 17,1 C 73 % 1013,7 hPa 0,0 l/m 12,1 km/h (2 Bft) N-NO22.5 20 0 min 24,3 klux 166 W/m
27.05.2016 10:15 16,8 C 23,6 C 17,0 C 73 % 1013,7 hPa 0,0 l/m 14,4 km/h (3 Bft) NO22.5 40 0 min 27,0 klux 185 W/m
27.05.2016 10:20 17,0 C 24,3 C 17,1 C 73 % 1013,7 hPa 0,0 l/m 13,5 km/h (3 Bft) NO22.5 35 0 min 30,6 klux 209 W/m
27.05.2016 10:25 17,0 C 24,5 C 17,1 C 73 % 1013,7 hPa 0,0 l/m 11,0 km/h (2 Bft) N-NO 30 0 min 30,6 klux 209 W/m
27.05.2016 10:29 17,2 C 25,2 C 17,1 C 73 % 1013,7 hPa 0,0 l/m 8,2 km/h (2 Bft) N-NO 25 0 min 30,8 klux 211 W/m
27.05.2016 10:34 17,2 C 25,6 C 17,1 C 72 % 1013,7 hPa 0,0 l/m 12,0 km/h (2 Bft) N-NO22.5 30 0 min 31,3 klux 214 W/m
27.05.2016 10:40 17,2 C 25,7 C 17,2 C 72 % 1013,7 hPa 0,0 l/m 12,8 km/h (3 Bft) N-NO22.5 20 0 min 31,2 klux 213 W/m
27.05.2016 10:45 17,4 C 25,9 C 17,3 C 72 % 1013,7 hPa 0,0 l/m 11,8 km/h (2 Bft) NO22.5 35 0 min 34,6 klux 237 W/m
27.05.2016 10:50 17,8 C 26,7 C 17,3 C 71 % 1013,7 hPa 0,0 l/m 12,5 km/h (2 Bft) NO22.5 35 0 min 52,0 klux 356 W/m
27.05.2016 10:55 17,8 C 28,0 C 17,4 C 72 % 1013,7 hPa 0,0 l/m 10,1 km/h (2 Bft) N-NO 30 0 min 29,2 klux 200 W/m
27.05.2016 10:59 17,8 C 27,0 C 17,5 C 72 % 1013,7 hPa 0,0 l/m 8,3 km/h (2 Bft) N22.5 350 0 min 23,6 klux 161 W/m
27.05.2016 11:05 17,7 C 25,7 C 17,4 C 72 % 1013,7 hPa 0,0 l/m 10,2 km/h (2 Bft) N 5 0 min 21,3 klux 146 W/m
27.05.2016 11:10 17,6 C 24,6 C 17,4 C 72 % 1013,7 hPa 0,0 l/m 10,7 km/h (2 Bft) N22.5 360 0 min 19,8 klux 135 W/m
27.05.2016 11:14 17,6 C 23,5 C 17,4 C 72 % 1013,7 hPa 0,0 l/m 12,9 km/h (3 Bft) N22.5 5 0 min 18,2 klux 124 W/m
27.05.2016 11:19 17,5 C 22,6 C 17,4 C 73 % 1013,7 hPa 0,0 l/m 8,7 km/h (2 Bft) N 5 0 min 16,9 klux 116 W/m
27.05.2016 11:25 17,5 C 22,4 C 17,5 C 73 % 1013,7 hPa 0,0 l/m 9,6 km/h (2 Bft) N22.5 5 0 min 16,4 klux 112 W/m
27.05.2016 11:30 17,5 C 22,3 C 17,5 C 73 % 1013,7 hPa 0,0 l/m 10,7 km/h (2 Bft) N22.5 5 0 min 18,1 klux 124 W/m
27.05.2016 11:35 17,4 C 22,5 C 17,5 C 73 % 1013,7 hPa 0,0 l/m 8,3 km/h (2 Bft) N 360 0 min 20,5 klux 140 W/m
27.05.2016 11:40 17,5 C 22,8 C 17,5 C 73 % 1013,7 hPa 0,0 l/m 9,8 km/h (2 Bft) N 360 0 min 22,9 klux 157 W/m
27.05.2016 11:44 17,6 C 23,4 C 17,5 C 73 % 1013,7 hPa 0,0 l/m 8,3 km/h (2 Bft) N 355 0 min 23,5 klux 161 W/m
27.05.2016 11:49 17,6 C 23,8 C 17,5 C 73 % 1013,7 hPa 0,0 l/m 13,2 km/h (3 Bft) N 360 0 min 26,7 klux 183 W/m
27.05.2016 11:55 17,8 C 24,5 C 17,6 C 73 % 1013,7 hPa 0,0 l/m 9,8 km/h (2 Bft) N 360 0 min 26,7 klux 183 W/m
27.05.2016 12:00 17,9 C 25,1 C 17,6 C 73 % 1013,7 hPa 0,0 l/m 15,6 km/h (3 Bft) N22.5 5 0 min 29,5 klux 202 W/m
27.05.2016 12:04 18,0 C 25,1 C 17,6 C 72 % 1013,7 hPa 0,0 l/m 11,5 km/h (2 Bft) N-NO22.5 15 0 min 34,5 klux 236 W/m
27.05.2016 12:10 18,2 C 26,3 C 17,7 C 72 % 1013,7 hPa 0,0 l/m 9,5 km/h (2 Bft) N 5 0 min 40,6 klux 278 W/m
27.05.2016 12:15 18,3 C 27,3 C 17,7 C 71 % 1013,7 hPa 0,0 l/m 10,4 km/h (2 Bft) N22.5 5 0 min 55,3 klux 378 W/m
27.05.2016 12:20 18,5 C 29,5 C 17,8 C 71 % 1013,7 hPa 0,0 l/m 14,2 km/h (3 Bft) N 10 0 min 64,9 klux 444 W/m
27.05.2016 12:24 18,9 C 31,4 C 17,9 C 70 % 1013,7 hPa 0,0 l/m 14,2 km/h (3 Bft) N22.5 10 0 min 62,6 klux 428 W/m
27.05.2016 12:29 19,6 C 35,8 C 18,1 C 69 % 1013,7 hPa 0,0 l/m 16,8 km/h (3 Bft) N-NO67.5 25 5 min 107 klux 732 W/m
27.05.2016 12:34 19,8 C 39,1 C 18,1 C 67 % 1013,7 hPa 0,0 l/m 14,0 km/h (3 Bft) N22.5 5 5 min 75,0 klux 513 W/m
27.05.2016 12:40 19,9 C 37,2 C 18,2 C 66 % 1013,7 hPa 0,0 l/m 17,3 km/h (3 Bft) N-NO22.5 15 6 min 71,4 klux 488 W/m
27.05.2016 12:45 20,2 C 37,2 C 18,2 C 66 % 1013,7 hPa 0,0 l/m 13,7 km/h (3 Bft) N-NO22.5 15 5 min 78,0 klux 534 W/m
27.05.2016 12:50 20,2 C 37,8 C 18,2 C 66 % 1013,7 hPa 0,0 l/m 19,1 km/h (3 Bft) N45 5 0 min 57,9 klux 396 W/m
27.05.2016 12:54 20,5 C 37,5 C 18,3 C 66 % 1013,6 hPa 0,0 l/m 16,0 km/h (3 Bft) NO22.5 40 4 min 69,6 klux 476 W/m
27.05.2016 12:59 20,8 C 38,5 C 18,3 C 66 % 1013,6 hPa 0,0 l/m 11,6 km/h (2 Bft) N45 360 5 min 77,1 klux 527 W/m
27.05.2016 13:05 20,6 C 40,2 C 18,4 C 65 % 1013,6 hPa 0,0 l/m 14,0 km/h (3 Bft) N22.5 350 6 min 96,0 klux 657 W/m
27.05.2016 13:10 20,9 C 41,2 C 18,5 C 66 % 1013,6 hPa 0,0 l/m 16,9 km/h (3 Bft) N45 360 5 min 96,2 klux 658 W/m
27.05.2016 13:14 21,0 C 42,5 C 18,6 C 66 % 1013,6 hPa 0,0 l/m 15,4 km/h (3 Bft) N-NW67.5 340 4 min 101 klux 691 W/m
27.05.2016 13:19 21,0 C 42,8 C 18,7 C 65 % 1013,6 hPa 0,0 l/m 13,8 km/h (3 Bft) N45 5 0 min 58,6 klux 401 W/m
27.05.2016 13:25 20,8 C 39,8 C 18,7 C 66 % 1013,6 hPa 0,0 l/m 13,2 km/h (3 Bft) N-NW45 340 6 min 83,8 klux 573 W/m
27.05.2016 13:30 20,8 C 39,5 C 18,7 C 67 % 1013,6 hPa 0,0 l/m 15,4 km/h (3 Bft) N45 5 5 min 100 klux 681 W/m
27.05.2016 13:35 21,2 C 41,3 C 18,8 C 67 % 1013,6 hPa 0,0 l/m 15,7 km/h (3 Bft) N45 360 5 min 83,9 klux 574 W/m
27.05.2016 13:39 21,3 C 40,2 C 18,8 C 66 % 1013,6 hPa 0,0 l/m 12,6 km/h (3 Bft) N67.5 5 4 min 79,7 klux 545 W/m
27.05.2016 13:44 21,3 C 39,7 C 18,8 C 66 % 1013,6 hPa 0,0 l/m 18,7 km/h (3 Bft) N45 350 5 min 82,0 klux 561 W/m
27.05.2016 13:50 21,7 C 41,7 C 19,0 C 64 % 1013,6 hPa 0,0 l/m 14,3 km/h (3 Bft) N22.5 10 6 min 82,5 klux 564 W/m
27.05.2016 13:55 21,6 C 39,1 C 19,0 C 63 % 1013,6 hPa 0,0 l/m 20,8 km/h (4 Bft) N22.5 10 5 min 75,2 klux 514 W/m
27.05.2016 14:00 21,4 C 39,7 C 19,1 C 62 % 1013,6 hPa 0,0 l/m 16,1 km/h (3 Bft) N22.5 10 5 min 98,0 klux 670 W/m
27.05.2016 14:04 22,0 C 41,7 C 19,1 C 62 % 1013,6 hPa 0,0 l/m 15,2 km/h (3 Bft) N22.5 5 4 min 91,4 klux 625 W/m
27.05.2016 14:10 22,0 C 42,7 C 19,3 C 62 % 1013,6 hPa 0,0 l/m 18,3 km/h (3 Bft) N22.5 355 6 min 95,4 klux 653 W/m
27.05.2016 14:15 22,3 C 43,2 C 19,4 C 63 % 1013,6 hPa 0,0 l/m 16,6 km/h (3 Bft) N-NO22.5 30 5 min 93,7 klux 641 W/m
27.05.2016 14:20 22,0 C 40,3 C 19,4 C 61 % 1013,6 hPa 0,0 l/m 22,2 km/h (4 Bft) N-NO45 30 0 min 47,6 klux 326 W/m
27.05.2016 14:24 22,0 C 37,9 C 19,4 C 59 % 1013,6 hPa 0,0 l/m 19,8 km/h (3 Bft) NO22.5 35 4 min 99 klux 679 W/m
27.05.2016 14:29 22,3 C 42,5 C 19,4 C 59 % 1013,6 hPa 0,0 l/m 18,6 km/h (3 Bft) NO45 40 5 min 94,4 klux 646 W/m
27.05.2016 14:35 22,6 C 43,2 C 19,5 C 58 % 1013,6 hPa 0,0 l/m 22,8 km/h (4 Bft) NO45 45 6 min 88,9 klux 608 W/m
27.05.2016 14:40 22,8 C 43,0 C 19,4 C 57 % 1013,6 hPa 0,0 l/m 21,1 km/h (4 Bft) NO45 35 5 min 72,6 klux 497 W/m
27.05.2016 14:45 22,6 C 42,9 C 19,7 C 58 % 1013,6 hPa 0,0 l/m 21,6 km/h (4 Bft) NO45 35 5 min 98,9 klux 676 W/m
27.05.2016 14:50 22,7 C 38,8 C 19,5 C 58 % 1013,6 hPa 0,0 l/m 23,1 km/h (4 Bft) NO22.5 35 0 min 43,8 klux 300 W/m
27.05.2016 14:54 22,8 C 41,0 C 19,5 C 58 % 1013,6 hPa 0,0 l/m 20,2 km/h (4 Bft) N-NO45 20 4 min 71,1 klux 486 W/m
27.05.2016 14:59 22,6 C 41,0 C 19,7 C 58 % 1013,6 hPa 0,0 l/m 18,1 km/h (3 Bft) N-NO22.5 20 5 min 97,9 klux 670 W/m
27.05.2016 15:05 23,0 C 43,4 C 19,9 C 57 % 1013,6 hPa 0,0 l/m 21,7 km/h (4 Bft) N67.5 5 6 min 100 klux 684 W/m
27.05.2016 15:09 23,4 C 44,3 C 20,0 C 57 % 1013,6 hPa 0,0 l/m 18,2 km/h (3 Bft) N-NO45 30 4 min 93,6 klux 640 W/m
27.05.2016 15:14 23,6 C 44,3 C 20,1 C 56 % 1013,6 hPa 0,0 l/m 21,1 km/h (4 Bft) NO45 45 5 min 90,9 klux 622 W/m
27.05.2016 15:20 23,8 C 43,6 C 20,2 C 55 % 1013,6 hPa 0,0 l/m 16,5 km/h (3 Bft) NO45 35 6 min 77,5 klux 530 W/m
27.05.2016 15:25 23,5 C 39,7 C 20,2 C 54 % 1013,6 hPa 0,0 l/m 19,5 km/h (3 Bft) N-NO45 30 5 min 79,4 klux 543 W/m
27.05.2016 15:30 23,4 C 39,6 C 20,2 C 57 % 1013,6 hPa 0,0 l/m 19,8 km/h (3 Bft) N-NO67.5 20 5 min 84,0 klux 575 W/m
27.05.2016 15:35 23,4 C 40,1 C 20,3 C 57 % 1013,6 hPa 0,0 l/m 23,3 km/h (4 Bft) N-NO22.5 25 5 min 87,0 klux 595 W/m
27.05.2016 15:39 23,5 C 37,1 C 20,1 C 57 % 1013,6 hPa 0,0 l/m 17,9 km/h (3 Bft) NO45 40 4 min 87,0 klux 595 W/m
27.05.2016 15:44 23,6 C 40,9 C 20,3 C 57 % 1013,6 hPa 0,0 l/m 16,3 km/h (3 Bft) N-NO22.5 20 5 min 93,8 klux 642 W/m
27.05.2016 15:50 23,7 C 41,5 C 20,4 C 57 % 1012,6 hPa 0,0 l/m 18,8 km/h (3 Bft) N-NO45 25 0 min 58,7 klux 402 W/m
27.05.2016 15:55 23,4 C 37,2 C 20,1 C 57 % 1012,6 hPa 0,0 l/m 18,0 km/h (3 Bft) NO22.5 40 0 min 35,9 klux 246 W/m
27.05.2016 16:00 23,3 C 35,5 C 20,3 C 57 % 1012,6 hPa 0,0 l/m 18,3 km/h (3 Bft) NO45 40 5 min 73,2 klux 501 W/m
27.05.2016 16:05 23,2 C 34,6 C 20,2 C 57 % 1012,6 hPa 0,0 l/m 18,0 km/h (3 Bft) N-NO22.5 15 5 min 70,5 klux 482 W/m
27.05.2016 16:10 23,0 C 34,9 C 20,3 C 57 % 1012,6 hPa 0,0 l/m 14,3 km/h (3 Bft) N-NO22.5 25 5 min 71,8 klux 491 W/m
27.05.2016 16:15 23,4 C 35,3 C 20,4 C 57 % 1012,6 hPa 0,0 l/m 15,0 km/h (3 Bft) N-NO22.5 30 5 min 77,0 klux 527 W/m
27.05.2016 16:20 23,7 C 40,5 C 20,5 C 57 % 1012,6 hPa 0,0 l/m 15,3 km/h (3 Bft) NO45 50 5 min 77,7 klux 531 W/m
27.05.2016 16:24 23,6 C 40,4 C 20,7 C 54 % 1012,6 hPa 0,0 l/m 20,3 km/h (4 Bft) NO45 40 4 min 77,0 klux 527 W/m
27.05.2016 16:29 23,7 C 39,9 C 20,6 C 55 % 1012,6 hPa 0,0 l/m 21,4 km/h (4 Bft) NO45 35 5 min 77,6 klux 531 W/m
27.05.2016 16:35 23,9 C 39,1 C 20,7 C 54 % 1012,6 hPa 0,0 l/m 19,7 km/h (3 Bft) N-NO22.5 25 6 min 79,7 klux 545 W/m
27.05.2016 16:40 24,0 C 37,7 C 20,9 C 54 % 1012,6 hPa 0,0 l/m 18,7 km/h (3 Bft) N-NO22.5 25 5 min 77,5 klux 530 W/m
27.05.2016 16:45 24,4 C 39,5 C 20,9 C 52 % 1012,6 hPa 0,0 l/m 18,4 km/h (3 Bft) NO67.5 50 5 min 78,7 klux 538 W/m
27.05.2016 16:49 24,2 C 39,6 C 20,5 C 52 % 1012,6 hPa 0,0 l/m 22,6 km/h (4 Bft) NO45 35 4 min 72,9 klux 499 W/m
27.05.2016 16:54 24,1 C 40,2 C 20,8 C 53 % 1012,6 hPa 0,0 l/m 16,0 km/h (3 Bft) NO22.5 35 5 min 71,5 klux 489 W/m
27.05.2016 17:00 24,7 C 40,3 C 21,0 C 52 % 1012,6 hPa 0,0 l/m 18,5 km/h (3 Bft) NO45 35 0 min 33,2 klux 227 W/m
27.05.2016 17:04 24,4 C 37,1 C 20,8 C 54 % 1012,6 hPa 0,0 l/m 14,9 km/h (3 Bft) NO22.5 35 4 min 54,6 klux 373 W/m
27.05.2016 17:09 24,3 C 35,2 C 20,8 C 53 % 1012,6 hPa 0,0 l/m 14,0 km/h (3 Bft) NO45 50 0 min 31,1 klux 213 W/m
27.05.2016 17:15 23,8 C 33,9 C 20,8 C 54 % 1012,6 hPa 0,0 l/m 17,3 km/h (3 Bft) O-NO45 60 0 min 21,7 klux 148 W/m
27.05.2016 17:20 23,3 C 32,1 C 20,6 C 55 % 1012,6 hPa 0,0 l/m 12,0 km/h (2 Bft) O-NO45 60 0 min 25,1 klux 172 W/m
27.05.2016 17:25 23,1 C 31,4 C 20,8 C 55 % 1012,6 hPa 0,0 l/m 9,8 km/h (2 Bft) O22.5 80 0 min 16,6 klux 114 W/m
27.05.2016 17:29 23,0 C 30,6 C 20,7 C 56 % 1012,6 hPa 0,0 l/m 2,3 km/h (1 Bft) O-SO22.5 115 0 min 14,5 klux 99 W/m
27.05.2016 17:34 22,8 C 29,1 C 20,7 C 57 % 1012,6 hPa 0,0 l/m 2,1 km/h (1 Bft) O-SO45 115 0 min 12,2 klux 83 W/m
27.05.2016 17:40 22,5 C 27,6 C 20,7 C 56 % 1012,6 hPa 0,0 l/m 15,6 km/h (3 Bft) O45 95 0 min 10,0 klux 68 W/m
27.05.2016 17:45 22,4 C 27,2 C 20,3 C 57 % 1012,6 hPa 0,0 l/m 13,8 km/h (3 Bft) O-SO45 105 0 min 10,2 klux 70 W/m
27.05.2016 17:50 22,2 C 26,6 C 20,0 C 57 % 1012,6 hPa 0,0 l/m 12,6 km/h (3 Bft) O-SO45 105 0 min 11,1 klux 76 W/m
27.05.2016 17:54 22,3 C 26,3 C 19,9 C 57 % 1012,6 hPa 0,0 l/m 10,6 km/h (2 Bft) O-NO22.5 75 0 min 11,6 klux 79 W/m
27.05.2016 17:59 22,4 C 26,0 C 19,7 C 57 % 1012,6 hPa 0,0 l/m 6,5 km/h (2 Bft) O22.5 80 0 min 9,8 klux 67 W/m
27.05.2016 18:05 22,2 C 25,9 C 19,7 C 57 % 1012,6 hPa 0,0 l/m 8,2 km/h (2 Bft) O22.5 80 0 min 10,8 klux 74 W/m
27.05.2016 18:09 22,2 C 25,8 C 19,7 C 57 % 1012,6 hPa 0,0 l/m 9,2 km/h (2 Bft) O22.5 85 0 min 13,1 klux 90 W/m
27.05.2016 18:14 22,3 C 26,0 C 19,6 C 58 % 1012,6 hPa 0,0 l/m 7,2 km/h (2 Bft) O22.5 100 0 min 12,4 klux 85 W/m
27.05.2016 18:20 22,3 C 26,0 C 19,6 C 58 % 1012,6 hPa 0,0 l/m 1,6 km/h (1 Bft) O 95 0 min 14,4 klux 98 W/m
27.05.2016 18:25 22,5 C 28,6 C 19,6 C 57 % 1012,6 hPa 0,0 l/m 6,5 km/h (2 Bft) O-SO22.5 105 5 min 35,9 klux 246 W/m
27.05.2016 18:30 22,5 C 28,4 C 19,5 C 57 % 1012,6 hPa 0,0 l/m 0,7 km/h (0 Bft) O22.5 85 0 min 16,5 klux 113 W/m
27.05.2016 18:35 22,4 C 28,2 C 19,5 C 57 % 1012,6 hPa 0,0 l/m 6,4 km/h (2 Bft) O22.5 100 0 min 18,7 klux 128 W/m
27.05.2016 18:39 22,4 C 28,5 C 19,5 C 57 % 1012,6 hPa 0,0 l/m 1,5 km/h (1 Bft) SO 125 0 min 24,1 klux 165 W/m
27.05.2016 18:45 22,4 C 28,5 C 19,4 C 57 % 1012,6 hPa 0,0 l/m 7,9 km/h (2 Bft) O-SO22.5 105 0 min 14,9 klux 102 W/m
27.05.2016 18:50 22,3 C 27,8 C 19,4 C 57 % 1012,6 hPa 0,0 l/m 2,3 km/h (1 Bft) O22.5 90 0 min 13,8 klux 94 W/m
27.05.2016 18:55 22,2 C 27,3 C 19,4 C 57 % 1012,6 hPa 0,0 l/m 6,6 km/h (2 Bft) O 90 0 min 10,6 klux 73 W/m
27.05.2016 19:00 22,2 C 26,4 C 19,4 C 58 % 1012,6 hPa 0,0 l/m 8,7 km/h (2 Bft) O22.5 90 0 min 9,2 klux 63 W/m
27.05.2016 19:05 22,1 C 25,6 C 19,4 C 58 % 1012,6 hPa 0,0 l/m 1,5 km/h (1 Bft) O 85 0 min 7,32 klux 50 W/m
27.05.2016 19:10 21,9 C 25,1 C 19,4 C 59 % 1012,6 hPa 0,0 l/m 6,8 km/h (2 Bft) O22.5 95 0 min 5,23 klux 36 W/m
27.05.2016 19:15 21,8 C 24,1 C 19,4 C 60 % 1012,6 hPa 0,0 l/m 9,2 km/h (2 Bft) N-NO45 25 0 min 4,47 klux 31 W/m
27.05.2016 19:19 21,8 C 23,2 C 19,3 C 61 % 1012,6 hPa 0,0 l/m 18,0 km/h (3 Bft) O-NO45 65 0 min 3,70 klux 25 W/m
27.05.2016 19:24 21,6 C 22,8 C 19,3 C 63 % 1012,6 hPa 0,0 l/m 16,6 km/h (3 Bft) NO45 55 0 min 3,79 klux 26 W/m
27.05.2016 19:30 21,4 C 21,9 C 19,3 C 64 % 1012,6 hPa 0,0 l/m 13,8 km/h (3 Bft) N-NO22.5 25 0 min 3,11 klux 21 W/m
27.05.2016 19:35 21,1 C 21,3 C 19,2 C 65 % 1012,6 hPa 0,0 l/m 17,3 km/h (3 Bft) N-NO45 25 0 min 2,67 klux 18 W/m
27.05.2016 19:40 20,9 C 20,8 C 19,3 C 65 % 1012,6 hPa 0,0 l/m 23,1 km/h (4 Bft) N-NO45 25 0 min 2,62 klux 18 W/m
27.05.2016 19:44 20,6 C 20,6 C 19,1 C 66 % 1012,6 hPa 0,0 l/m 18,5 km/h (3 Bft) N-NO22.5 25 0 min 2,93 klux 20 W/m
27.05.2016 19:49 20,4 C 20,3 C 19,2 C 67 % 1012,6 hPa 0,0 l/m 22,4 km/h (4 Bft) N-NO45 25 0 min 2,70 klux 18 W/m
27.05.2016 19:55 20,3 C 19,9 C 19,1 C 67 % 1012,6 hPa 0,0 l/m 19,1 km/h (3 Bft) N-NO22.5 30 0 min 2,49 klux 17 W/m
27.05.2016 20:00 20,2 C 19,8 C 19,1 C 69 % 1012,6 hPa 0,0 l/m 17,1 km/h (3 Bft) N-NO45 25 0 min 2,49 klux 17 W/m
27.05.2016 20:04 20,0 C 19,6 C 19,1 C 69 % 1012,7 hPa 0,0 l/m 13,6 km/h (3 Bft) N22.5 5 0 min 2,12 klux 15 W/m
27.05.2016 20:09 19,9 C 19,3 C 19,2 C 70 % 1012,7 hPa 0,0 l/m 11,5 km/h (2 Bft) N-NO22.5 20 0 min 1,92 klux 13 W/m
27.05.2016 20:15 19,8 C 19,2 C 19,2 C 70 % 1012,7 hPa 0,0 l/m 8,5 km/h (2 Bft) N 360 0 min 1,80 klux 12 W/m
27.05.2016 20:20 19,9 C 19,1 C 19,2 C 70 % 1012,7 hPa 0,0 l/m 11,7 km/h (2 Bft) N22.5 360 0 min 1,68 klux 11 W/m
27.05.2016 20:25 19,8 C 19,0 C 19,1 C 71 % 1012,7 hPa 0,0 l/m 8,9 km/h (2 Bft) N-NO22.5 15 0 min 1,49 klux 10 W/m
27.05.2016 20:29 19,7 C 18,9 C 19,1 C 71 % 1012,7 hPa 0,0 l/m 10,3 km/h (2 Bft) N-NO22.5 15 0 min 1,55 klux 11 W/m
27.05.2016 20:34 19,7 C 18,9 C 19,1 C 71 % 1012,7 hPa 0,0 l/m 11,8 km/h (2 Bft) N22.5 10 0 min 1,49 klux 10 W/m
27.05.2016 20:40 19,7 C 18,9 C 19,1 C 71 % 1012,7 hPa 0,0 l/m 12,0 km/h (2 Bft) N-NO22.5 15 0 min 1,49 klux 10 W/m
27.05.2016 20:45 19,6 C 18,9 C 19,1 C 71 % 1012,7 hPa 0,0 l/m 11,4 km/h (2 Bft) N-NO22.5 20 0 min 1,42 klux 10 W/m
27.05.2016 20:50 19,7 C 18,9 C 19,0 C 71 % 1012,7 hPa 0,0 l/m 14,0 km/h (3 Bft) N-NO22.5 15 0 min 1,21 klux 8 W/m
27.05.2016 20:54 19,6 C 18,8 C 19,0 C 71 % 1012,7 hPa 0,0 l/m 10,8 km/h (2 Bft) N-NO22.5 20 0 min 933 lux 6 W/m
27.05.2016 20:59 19,6 C 18,7 C 19,0 C 71 % 1012,7 hPa 0,0 l/m 14,2 km/h (3 Bft) N-NO22.5 20 0 min 764 lux 5 W/m
27.05.2016 21:05 19,4 C 18,6 C 19,0 C 71 % 1012,7 hPa 0,0 l/m 13,1 km/h (3 Bft) N-NO45 15 0 min 555 lux 4 W/m
27.05.2016 21:09 19,4 C 18,6 C 19,0 C 71 % 1012,7 hPa 0,0 l/m 15,8 km/h (3 Bft) N22.5 5 0 min 484 lux 3 W/m
27.05.2016 21:14 19,4 C 18,5 C 19,0 C 71 % 1012,7 hPa 0,0 l/m 11,4 km/h (2 Bft) N-NO22.5 20 0 min 484 lux 3 W/m
27.05.2016 21:20 19,3 C 18,5 C 19,0 C 71 % 1013,7 hPa 0,0 l/m 12,0 km/h (2 Bft) N-NO22.5 25 0 min 545 lux 4 W/m
27.05.2016 21:25 19,3 C 18,4 C 19,0 C 71 % 1013,7 hPa 0,0 l/m 14,4 km/h (3 Bft) N-NO22.5 25 0 min 556 lux 4 W/m
27.05.2016 21:30 19,3 C 18,3 C 19,0 C 71 % 1013,7 hPa 0,0 l/m 11,5 km/h (2 Bft) N22.5 10 0 min 390 lux 0 W/m
27.05.2016 21:35 19,2 C 18,2 C 19,0 C 71 % 1013,7 hPa 0,0 l/m 13,8 km/h (3 Bft) N22.5 10 0 min 214 lux 0 W/m
27.05.2016 21:39 19,2 C 18,2 C 19,0 C 72 % 1013,7 hPa 0,0 l/m 9,6 km/h (2 Bft) N-NO22.5 15 0 min 129 lux 0 W/m
27.05.2016 21:45 19,0 C 18,0 C 19,0 C 72 % 1013,7 hPa 0,0 l/m 8,9 km/h (2 Bft) N 10 0 min 81 lux 0 W/m
27.05.2016 21:50 19,0 C 17,8 C 18,9 C 73 % 1013,7 hPa 0,0 l/m 8,4 km/h (2 Bft) N 5 0 min 67 lux 0 W/m
27.05.2016 21:55 18,8 C 17,7 C 18,9 C 72 % 1013,7 hPa 0,0 l/m 13,2 km/h (3 Bft) N45 10 0 min 41 lux 0 W/m
27.05.2016 22:00 18,7 C 17,5 C 18,9 C 73 % 1013,7 hPa 0,0 l/m 10,8 km/h (2 Bft) N-NO22.5 15 0 min 22 lux 0 W/m
27.05.2016 22:05 18,8 C 17,3 C 18,9 C 73 % 1013,7 hPa 0,0 l/m 10,5 km/h (2 Bft) N-NO22.5 15 0 min 8 lux 0 W/m
27.05.2016 22:10 18,7 C 17,3 C 18,9 C 73 % 1013,7 hPa 0,0 l/m 10,7 km/h (2 Bft) N 10 0 min 2 lux 0 W/m
27.05.2016 22:15 18,6 C 17,2 C 18,9 C 73 % 1013,7 hPa 0,0 l/m 7,4 km/h (2 Bft) N 360 0 min 0 lux 0 W/m
27.05.2016 22:19 18,6 C 17,2 C 18,9 C 73 % 1013,7 hPa 0,0 l/m 7,8 km/h (2 Bft) N 360 0 min 0 lux 0 W/m
27.05.2016 22:24 18,5 C 17,2 C 18,9 C 73 % 1013,7 hPa 0,0 l/m 5,2 km/h (1 Bft) N22.5 355 0 min 0 lux 0 W/m
27.05.2016 22:30 18,5 C 17,2 C 18,9 C 73 % 1013,7 hPa 0,0 l/m 6,0 km/h (2 Bft) N-NO22.5 15 0 min 0 lux 0 W/m
27.05.2016 22:35 18,5 C 17,2 C 18,9 C 73 % 1013,7 hPa 0,0 l/m 0,7 km/h (0 Bft) N-NO 20 0 min 0 lux 0 W/m
27.05.2016 22:40 18,4 C 17,1 C 18,9 C 73 % 1013,7 hPa 0,0 l/m 0,4 km/h (0 Bft) N-NO 20 0 min 0 lux 0 W/m
27.05.2016 22:44 18,4 C 17,1 C 18,9 C 73 % 1013,7 hPa 0,0 l/m 0,1 km/h (0 Bft) N-NO 20 0 min 0 lux 0 W/m
27.05.2016 22:49 18,4 C 17,0 C 18,9 C 73 % 1013,7 hPa 0,0 l/m 0,0 km/h (0 Bft) N-NO 20 0 min 0 lux 0 W/m
27.05.2016 22:55 18,4 C 17,0 C 18,9 C 73 % 1013,7 hPa 0,0 l/m 7,6 km/h (2 Bft) N-NO 25 0 min 0 lux 0 W/m
27.05.2016 23:00 18,4 C 17,0 C 18,8 C 73 % 1013,7 hPa 0,0 l/m 6,2 km/h (2 Bft) N-NO 25 0 min 0 lux 0 W/m
27.05.2016 23:04 18,4 C 16,8 C 18,9 C 73 % 1013,7 hPa 0,0 l/m 4,3 km/h (1 Bft) N-NO 25 0 min 0 lux 0 W/m
27.05.2016 23:10 18,3 C 16,6 C 18,9 C 73 % 1013,7 hPa 0,0 l/m 8,4 km/h (2 Bft) NO45 50 0 min 0 lux 0 W/m
27.05.2016 23:15 18,3 C 16,6 C 18,9 C 73 % 1013,7 hPa 0,0 l/m 7,3 km/h (2 Bft) NO 45 0 min 0 lux 0 W/m
27.05.2016 23:20 18,3 C 16,6 C 18,9 C 73 % 1013,7 hPa 0,0 l/m 7,4 km/h (2 Bft) NO 45 0 min 0 lux 0 W/m
27.05.2016 23:24 18,3 C 16,4 C 18,9 C 73 % 1013,7 hPa 0,0 l/m 5,7 km/h (2 Bft) NO 45 0 min 0 lux 0 W/m
27.05.2016 23:29 18,2 C 16,3 C 18,9 C 73 % 1013,7 hPa 0,0 l/m 0,1 km/h (0 Bft) NO 45 0 min 0 lux 0 W/m
27.05.2016 23:35 18,1 C 16,3 C 18,9 C 74 % 1013,7 hPa 0,0 l/m 3,7 km/h (1 Bft) NO 45 0 min 0 lux 0 W/m
27.05.2016 23:40 18,0 C 16,0 C 18,8 C 74 % 1013,7 hPa 0,0 l/m 2,8 km/h (1 Bft) NO 45 0 min 0 lux 0 W/m
27.05.2016 23:45 17,9 C 15,8 C 18,9 C 74 % 1013,7 hPa 0,0 l/m 0,0 km/h (0 Bft) NO 45 0 min 0 lux 0 W/m
27.05.2016 23:49 17,7 C 15,7 C 18,8 C 74 % 1012,7 hPa 0,0 l/m 0,0 km/h (0 Bft) NO 45 0 min 0 lux 0 W/m
27.05.2016 23:54 17,4 C 15,5 C 18,8 C 75 % 1012,7 hPa 0,0 l/m 0,0 km/h (0 Bft) NO 45 0 min 0 lux 0 W/m
_ Min-Zeit 06:34 05:35 08:55 16:45 17:00 - 08:50 - - - - -
Minimum _ 15,0 C 14,2 C 16,8 C 52 % 1012,6 hPa - 0,0 km/h (0 Bft) - - - - -
_ Max-Zeit 17:00 15:09 17:00 09:05 06:34 00:00 02:15 - - 12:40 12:29 12:29
Maximum _ 24,7 C 44,3 C 21,0 C 75 % 1013,7 hPa 0,0 l/m 25,4 km/h
NO (4 Bft)
- - 6 min 107 klux 732 W/m
Durchschnitt _ 18,7 C 23,1 C 18,2 C 67 % 1013,3 hPa #0,0 l/m 11,8 km/h (2 Bft) NO - #4:08 h 21,4 klux 221 W/m